VOZ1846 YPPD-YPPH
Flight info
| Callsign | VOZ1846 |
|---|---|
| Flight time | N/A |
| Altitude | 34000 |
| Route | PD Q9 AVPAL Q38 PH |
| Aircraft | A320/M-SDE3FGHIRWY/LB1 |
Departure
| Time | 2026-05-06 10:53 |
|---|---|
| Airport | Port Hedland International Airport (YPPD) |
Arrival
| Time | N/A |
|---|---|
| Airport | Perth International Airport (YPPH) |
| Time | Latitude | Longitude | Altitude | Speed | Heading |
|---|---|---|---|---|---|
| 2026-05-06 10:39 | -20.37861 | 118.63151 | 33 ft | 0 kts | 47° |
| 2026-05-06 10:48 | -20.37874 | 118.63159 | 33 ft | 1 kts | 156° |
| 2026-05-06 10:48 | -20.37883 | 118.63171 | 33 ft | 3 kts | 122° |
| 2026-05-06 10:49 | -20.37910 | 118.63230 | 33 ft | 16 kts | 126° |
| 2026-05-06 10:49 | -20.37973 | 118.63243 | 30 ft | 8 kts | 180° |
| 2026-05-06 10:49 | -20.38020 | 118.63212 | 31 ft | 9 kts | 229° |
| 2026-05-06 10:49 | -20.38071 | 118.63149 | 30 ft | 18 kts | 228° |
| 2026-05-06 10:50 | -20.38168 | 118.63035 | 32 ft | 21 kts | 227° |
| 2026-05-06 10:50 | -20.38253 | 118.62994 | 34 ft | 9 kts | 135° |
| 2026-05-06 10:50 | -20.38339 | 118.63082 | 33 ft | 30 kts | 136° |
| 2026-05-06 10:50 | -20.38525 | 118.63242 | 36 ft | 30 kts | 137° |
| 2026-05-06 10:51 | -20.38684 | 118.63405 | 35 ft | 23 kts | 135° |
| 2026-05-06 10:51 | -20.38770 | 118.63494 | 35 ft | 1 kts | 196° |
| 2026-05-06 10:51 | -20.38767 | 118.63486 | 35 ft | 2 kts | 284° |
| 2026-05-06 10:51 | -20.38758 | 118.63478 | 35 ft | 2 kts | 315° |
| 2026-05-06 10:52 | -20.38740 | 118.63459 | 35 ft | 5 kts | 315° |
| 2026-05-06 10:52 | -20.38673 | 118.63392 | 33 ft | 34 kts | 317° |
| 2026-05-06 10:52 | -20.38321 | 118.63047 | 34 ft | 100 kts | 317° |
| 2026-05-06 10:52 | -20.37671 | 118.62414 | 38 ft | 154 kts | 318° |
| 2026-05-06 10:53 | -20.36817 | 118.61575 | 536 ft | 173 kts | 316° |
| 2026-05-06 10:53 | -20.35923 | 118.60681 | 1286 ft | 179 kts | 316° |
| 2026-05-06 10:53 | -20.35335 | 118.60085 | 1746 ft | 174 kts | 316° |
| 2026-05-06 10:53 | -20.34459 | 118.59142 | 2256 ft | 184 kts | 310° |
| 2026-05-06 10:54 | -20.33717 | 118.58010 | 2699 ft | 193 kts | 300° |
| 2026-05-06 10:54 | -20.33322 | 118.56608 | 3016 ft | 210 kts | 269° |
| 2026-05-06 10:54 | -20.33679 | 118.55047 | 3301 ft | 229 kts | 240° |
| 2026-05-06 10:54 | -20.34871 | 118.53852 | 3537 ft | 250 kts | 201° |
| 2026-05-06 10:55 | -20.36623 | 118.53414 | 3874 ft | 272 kts | 187° |
| 2026-05-06 10:55 | -20.38591 | 118.53149 | 4237 ft | 295 kts | 185° |
| 2026-05-06 10:55 | -20.40665 | 118.52920 | 4888 ft | 303 kts | 184° |
| 2026-05-06 10:55 | -20.42782 | 118.52692 | 5712 ft | 307 kts | 184° |
| 2026-05-06 10:56 | -20.44919 | 118.52452 | 6536 ft | 310 kts | 184° |
| 2026-05-06 10:56 | -20.47076 | 118.52196 | 7311 ft | 313 kts | 185° |
| 2026-05-06 10:56 | -20.49254 | 118.51931 | 8033 ft | 318 kts | 185° |
| 2026-05-06 10:56 | -20.51467 | 118.51651 | 8732 ft | 322 kts | 185° |
| 2026-05-06 10:57 | -20.53674 | 118.51363 | 9403 ft | 326 kts | 185° |
| 2026-05-06 10:57 | -20.55940 | 118.51068 | 10083 ft | 329 kts | 186° |
| 2026-05-06 10:57 | -20.58238 | 118.50774 | 10757 ft | 332 kts | 186° |
| 2026-05-06 10:57 | -20.60544 | 118.50479 | 11427 ft | 336 kts | 186° |
| 2026-05-06 10:58 | -20.62881 | 118.50178 | 12091 ft | 339 kts | 187° |
| 2026-05-06 10:58 | -20.65236 | 118.49873 | 12750 ft | 342 kts | 187° |
| 2026-05-06 10:58 | -20.67611 | 118.49568 | 13413 ft | 345 kts | 187° |
| 2026-05-06 10:58 | -20.70004 | 118.49263 | 14049 ft | 348 kts | 187° |
| 2026-05-06 10:59 | -20.72428 | 118.48954 | 14673 ft | 352 kts | 187° |
| 2026-05-06 10:59 | -20.74872 | 118.48643 | 15288 ft | 355 kts | 187° |
| 2026-05-06 10:59 | -20.77335 | 118.48331 | 15893 ft | 358 kts | 187° |
| 2026-05-06 10:59 | -20.79815 | 118.48018 | 16486 ft | 361 kts | 187° |
| 2026-05-06 11:00 | -20.82280 | 118.47707 | 17058 ft | 363 kts | 187° |
| 2026-05-06 11:00 | -20.85657 | 118.47279 | 17826 ft | 367 kts | 188° |
| 2026-05-06 11:00 | -20.87342 | 118.47063 | 18208 ft | 370 kts | 188° |
| 2026-05-06 11:00 | -20.89906 | 118.46731 | 18770 ft | 372 kts | 188° |
| 2026-05-06 11:01 | -20.92493 | 118.46397 | 19330 ft | 376 kts | 188° |
| 2026-05-06 11:01 | -20.95096 | 118.46062 | 19895 ft | 379 kts | 188° |
| 2026-05-06 11:01 | -20.97721 | 118.45727 | 20438 ft | 382 kts | 188° |
| 2026-05-06 11:01 | -21.00368 | 118.45389 | 20972 ft | 384 kts | 188° |
| 2026-05-06 11:02 | -21.03035 | 118.45048 | 21478 ft | 387 kts | 188° |
| 2026-05-06 11:02 | -21.05718 | 118.44703 | 21980 ft | 390 kts | 188° |
| 2026-05-06 11:02 | -21.08432 | 118.44353 | 22459 ft | 393 kts | 188° |
| 2026-05-06 11:02 | -21.11153 | 118.44002 | 22956 ft | 396 kts | 189° |
| 2026-05-06 11:03 | -21.13900 | 118.43650 | 23436 ft | 399 kts | 189° |
| 2026-05-06 11:03 | -21.16658 | 118.43295 | 23906 ft | 401 kts | 189° |
| 2026-05-06 11:03 | -21.19446 | 118.42936 | 24358 ft | 404 kts | 189° |
| 2026-05-06 11:03 | -21.22243 | 118.42576 | 24801 ft | 406 kts | 189° |
| 2026-05-06 11:04 | -21.25062 | 118.42217 | 25237 ft | 409 kts | 189° |
| 2026-05-06 11:04 | -21.27899 | 118.41855 | 25657 ft | 411 kts | 189° |
| 2026-05-06 11:04 | -21.30746 | 118.41491 | 26072 ft | 413 kts | 189° |
| 2026-05-06 11:04 | -21.33573 | 118.41129 | 26469 ft | 415 kts | 189° |
| 2026-05-06 11:05 | -21.36449 | 118.40762 | 26857 ft | 418 kts | 189° |
| 2026-05-06 11:05 | -21.39340 | 118.40391 | 27238 ft | 420 kts | 190° |
| 2026-05-06 11:05 | -21.42249 | 118.40016 | 27613 ft | 422 kts | 190° |
| 2026-05-06 11:05 | -21.45175 | 118.39638 | 27977 ft | 424 kts | 190° |
| 2026-05-06 11:06 | -21.48108 | 118.39258 | 28341 ft | 426 kts | 190° |
| 2026-05-06 11:06 | -21.51062 | 118.38878 | 28703 ft | 428 kts | 190° |
| 2026-05-06 11:06 | -21.54021 | 118.38496 | 29041 ft | 429 kts | 191° |
| 2026-05-06 11:06 | -21.56988 | 118.38110 | 29460 ft | 429 kts | 191° |
| 2026-05-06 11:07 | -21.59947 | 118.37727 | 29948 ft | 428 kts | 191° |
| 2026-05-06 11:07 | -21.62898 | 118.37347 | 30415 ft | 426 kts | 191° |
| 2026-05-06 11:07 | -21.65843 | 118.36968 | 30875 ft | 425 kts | 191° |
| 2026-05-06 11:07 | -21.68772 | 118.36590 | 31349 ft | 424 kts | 191° |
| 2026-05-06 11:08 | -21.71692 | 118.36211 | 31821 ft | 422 kts | 191° |
| 2026-05-06 11:08 | -21.74608 | 118.35834 | 32297 ft | 420 kts | 192° |
| 2026-05-06 11:08 | -21.77506 | 118.35458 | 32744 ft | 419 kts | 192° |
| 2026-05-06 11:08 | -21.80399 | 118.35083 | 33181 ft | 418 kts | 192° |
| 2026-05-06 11:09 | -21.83244 | 118.34715 | 33581 ft | 416 kts | 192° |
| 2026-05-06 11:09 | -21.86117 | 118.34342 | 33913 ft | 416 kts | 192° |
| 2026-05-06 11:09 | -21.88984 | 118.33971 | 33990 ft | 414 kts | 192° |
| 2026-05-06 11:10 | -21.94712 | 118.33227 | 34000 ft | 413 kts | 192° |
| 2026-05-06 11:10 | -22.00419 | 118.32484 | 33999 ft | 413 kts | 192° |
| 2026-05-06 11:11 | -22.06141 | 118.31659 | 33999 ft | 421 kts | 194° |
| 2026-05-06 11:11 | -22.12018 | 118.30544 | 34000 ft | 435 kts | 195° |
| 2026-05-06 11:12 | -22.18009 | 118.29361 | 33999 ft | 440 kts | 195° |
| 2026-05-06 11:12 | -22.24040 | 118.28229 | 34025 ft | 441 kts | 194° |
| 2026-05-06 11:13 | -22.30050 | 118.27128 | 34027 ft | 440 kts | 194° |
| 2026-05-06 11:13 | -22.36093 | 118.26011 | 34044 ft | 440 kts | 194° |
| 2026-05-06 11:14 | -22.42137 | 118.24886 | 34045 ft | 440 kts | 194° |
| 2026-05-06 11:14 | -22.48184 | 118.23764 | 34047 ft | 441 kts | 194° |
| 2026-05-06 11:15 | -22.54232 | 118.22647 | 34053 ft | 441 kts | 194° |
| 2026-05-06 11:15 | -22.60292 | 118.21522 | 34057 ft | 441 kts | 194° |
| 2026-05-06 11:16 | -22.66309 | 118.20400 | 34059 ft | 442 kts | 194° |
| 2026-05-06 11:16 | -22.72368 | 118.19263 | 34062 ft | 442 kts | 194° |
| 2026-05-06 11:17 | -22.78428 | 118.18131 | 34066 ft | 442 kts | 194° |
| 2026-05-06 11:17 | -22.84497 | 118.17007 | 34069 ft | 442 kts | 194° |
| 2026-05-06 11:18 | -22.90556 | 118.15879 | 34069 ft | 442 kts | 194° |
| 2026-05-06 11:18 | -22.96619 | 118.14743 | 34070 ft | 442 kts | 194° |
| 2026-05-06 11:19 | -23.02676 | 118.13606 | 34074 ft | 442 kts | 194° |
| 2026-05-06 11:19 | -23.08738 | 118.12464 | 34077 ft | 442 kts | 194° |
| 2026-05-06 11:20 | -23.14791 | 118.11328 | 34080 ft | 441 kts | 194° |
| 2026-05-06 11:20 | -23.20818 | 118.10194 | 34081 ft | 442 kts | 194° |
| 2026-05-06 11:21 | -23.26876 | 118.09058 | 34086 ft | 442 kts | 193° |
| 2026-05-06 11:21 | -23.32943 | 118.07918 | 34084 ft | 442 kts | 193° |
| 2026-05-06 11:22 | -23.39019 | 118.06776 | 34088 ft | 442 kts | 193° |
| 2026-05-06 11:22 | -23.45079 | 118.05640 | 34091 ft | 442 kts | 193° |
| 2026-05-06 11:23 | -23.51144 | 118.04497 | 34095 ft | 442 kts | 193° |
| 2026-05-06 11:23 | -23.57171 | 118.03353 | 34096 ft | 442 kts | 193° |
| 2026-05-06 11:24 | -23.63241 | 118.02206 | 34096 ft | 443 kts | 193° |
| 2026-05-06 11:24 | -23.69312 | 118.01061 | 34103 ft | 443 kts | 193° |
| 2026-05-06 11:25 | -23.75382 | 117.99905 | 34108 ft | 443 kts | 193° |
| 2026-05-06 11:25 | -23.81447 | 117.98752 | 34111 ft | 443 kts | 193° |
| 2026-05-06 11:26 | -23.87523 | 117.97599 | 34113 ft | 443 kts | 193° |
| 2026-05-06 11:26 | -23.93602 | 117.96452 | 34118 ft | 443 kts | 193° |
| 2026-05-06 11:27 | -23.99684 | 117.95302 | 34124 ft | 443 kts | 193° |
| 2026-05-06 11:27 | -24.05721 | 117.94149 | 34126 ft | 443 kts | 193° |
| 2026-05-06 11:28 | -24.11794 | 117.92984 | 34131 ft | 443 kts | 193° |
| 2026-05-06 11:28 | -24.17874 | 117.91823 | 34134 ft | 443 kts | 193° |
| 2026-05-06 11:29 | -24.23948 | 117.90671 | 34136 ft | 443 kts | 193° |
| 2026-05-06 11:29 | -24.30024 | 117.89518 | 34141 ft | 443 kts | 193° |
| 2026-05-06 11:30 | -24.36096 | 117.88353 | 34141 ft | 443 kts | 193° |
| 2026-05-06 11:30 | -24.42166 | 117.87186 | 34144 ft | 443 kts | 193° |
| 2026-05-06 11:31 | -24.48230 | 117.86029 | 34144 ft | 442 kts | 193° |
| 2026-05-06 11:31 | -24.54298 | 117.84865 | 34146 ft | 442 kts | 193° |
| 2026-05-06 11:32 | -24.60368 | 117.83699 | 34150 ft | 442 kts | 193° |
| 2026-05-06 11:32 | -24.66433 | 117.82529 | 34152 ft | 442 kts | 193° |
| 2026-05-06 11:33 | -24.72454 | 117.81366 | 34157 ft | 442 kts | 193° |
| 2026-05-06 11:33 | -24.78520 | 117.80202 | 34160 ft | 442 kts | 193° |
| 2026-05-06 11:34 | -24.84579 | 117.79038 | 34160 ft | 442 kts | 193° |
| 2026-05-06 11:34 | -24.90650 | 117.77877 | 34162 ft | 442 kts | 193° |
| 2026-05-06 11:35 | -24.96713 | 117.76715 | 34164 ft | 442 kts | 193° |
| 2026-05-06 11:35 | -25.02767 | 117.75540 | 34163 ft | 442 kts | 193° |
| 2026-05-06 11:36 | -25.08823 | 117.74363 | 34165 ft | 442 kts | 193° |
| 2026-05-06 11:36 | -25.14878 | 117.73189 | 34171 ft | 442 kts | 193° |
| 2026-05-06 11:37 | -25.20940 | 117.72008 | 34175 ft | 442 kts | 193° |
| 2026-05-06 11:37 | -25.26960 | 117.70838 | 34178 ft | 441 kts | 193° |
| 2026-05-06 11:38 | -25.33021 | 117.69664 | 34178 ft | 442 kts | 192° |
| 2026-05-06 11:38 | -25.39076 | 117.68492 | 34179 ft | 442 kts | 192° |
| 2026-05-06 11:39 | -25.45127 | 117.67316 | 34178 ft | 441 kts | 193° |
| 2026-05-06 11:39 | -25.51182 | 117.66133 | 34180 ft | 442 kts | 192° |
| 2026-05-06 11:40 | -25.57235 | 117.64954 | 34181 ft | 441 kts | 192° |
| 2026-05-06 11:40 | -25.63248 | 117.63783 | 34181 ft | 441 kts | 192° |
| 2026-05-06 11:41 | -25.69293 | 117.62599 | 34186 ft | 441 kts | 192° |
| 2026-05-06 11:41 | -25.74366 | 117.61598 | 34188 ft | 441 kts | 192° |
| 2026-05-06 11:42 | -25.81410 | 117.60221 | 34195 ft | 442 kts | 192° |
| 2026-05-06 11:42 | -25.86455 | 117.59235 | 34211 ft | 442 kts | 192° |
| 2026-05-06 11:43 | -25.92509 | 117.58042 | 34211 ft | 442 kts | 192° |
| 2026-05-06 11:43 | -25.98566 | 117.56858 | 34216 ft | 442 kts | 192° |
| 2026-05-06 11:44 | -26.07647 | 117.55071 | 34225 ft | 442 kts | 192° |
| 2026-05-06 11:44 | -26.13705 | 117.53880 | 34226 ft | 442 kts | 192° |
| 2026-05-06 11:45 | -26.19726 | 117.52695 | 34231 ft | 442 kts | 192° |
| 2026-05-06 11:45 | -26.25782 | 117.51496 | 34228 ft | 442 kts | 192° |
| 2026-05-06 11:46 | -26.31847 | 117.50298 | 34235 ft | 442 kts | 192° |
| 2026-05-06 11:46 | -26.37907 | 117.49101 | 34242 ft | 442 kts | 192° |
| 2026-05-06 11:47 | -26.43973 | 117.47898 | 34247 ft | 442 kts | 192° |
| 2026-05-06 11:47 | -26.50034 | 117.46695 | 34252 ft | 442 kts | 192° |
| 2026-05-06 11:48 | -26.56110 | 117.45491 | 34257 ft | 442 kts | 192° |
| 2026-05-06 11:48 | -26.62168 | 117.44285 | 34258 ft | 442 kts | 192° |
| 2026-05-06 11:49 | -26.68230 | 117.43077 | 34260 ft | 442 kts | 192° |
| 2026-05-06 11:49 | -26.74298 | 117.41878 | 34261 ft | 443 kts | 192° |
| 2026-05-06 11:50 | -26.80330 | 117.40677 | 34269 ft | 443 kts | 192° |
| 2026-05-06 11:50 | -26.86409 | 117.39459 | 34272 ft | 443 kts | 192° |
| 2026-05-06 11:51 | -26.92483 | 117.38248 | 34276 ft | 443 kts | 192° |
| 2026-05-06 11:51 | -26.98557 | 117.37035 | 34281 ft | 443 kts | 192° |
| 2026-05-06 11:52 | -27.04625 | 117.35818 | 34280 ft | 443 kts | 192° |
| 2026-05-06 11:52 | -27.10687 | 117.34603 | 34279 ft | 443 kts | 192° |
| 2026-05-06 11:53 | -27.16756 | 117.33386 | 34280 ft | 442 kts | 192° |
| 2026-05-06 11:53 | -27.22812 | 117.32174 | 34280 ft | 442 kts | 192° |
| 2026-05-06 11:54 | -27.28862 | 117.30959 | 34275 ft | 442 kts | 192° |
| 2026-05-06 11:54 | -27.34916 | 117.29747 | 34275 ft | 442 kts | 192° |
| 2026-05-06 11:55 | -27.40934 | 117.28533 | 34275 ft | 442 kts | 192° |
| 2026-05-06 11:55 | -27.46986 | 117.27308 | 34275 ft | 442 kts | 192° |
| 2026-05-06 11:56 | -27.53036 | 117.26082 | 34279 ft | 442 kts | 192° |
| 2026-05-06 11:56 | -27.59089 | 117.24857 | 34279 ft | 442 kts | 192° |
| 2026-05-06 11:57 | -27.65140 | 117.23634 | 34280 ft | 442 kts | 192° |
| 2026-05-06 11:57 | -27.71190 | 117.22409 | 34282 ft | 442 kts | 192° |
| 2026-05-06 11:58 | -27.77250 | 117.21176 | 34285 ft | 442 kts | 192° |
| 2026-05-06 11:58 | -27.83307 | 117.19955 | 34286 ft | 442 kts | 192° |
| 2026-05-06 11:59 | -27.89361 | 117.18729 | 34289 ft | 442 kts | 192° |
| 2026-05-06 11:59 | -27.95382 | 117.17493 | 34294 ft | 442 kts | 192° |
| 2026-05-06 12:00 | -28.01438 | 117.16254 | 34300 ft | 442 kts | 192° |
| 2026-05-06 12:00 | -28.07497 | 117.15015 | 34299 ft | 442 kts | 192° |
| 2026-05-06 12:01 | -28.13547 | 117.13780 | 34297 ft | 442 kts | 192° |
| 2026-05-06 12:01 | -28.19598 | 117.12533 | 34302 ft | 442 kts | 192° |
| 2026-05-06 12:02 | -28.25659 | 117.11286 | 34303 ft | 443 kts | 192° |
| 2026-05-06 12:02 | -28.31718 | 117.10045 | 34303 ft | 443 kts | 191° |
| 2026-05-06 12:03 | -28.37782 | 117.08804 | 34304 ft | 443 kts | 192° |
| 2026-05-06 12:03 | -28.43854 | 117.07547 | 34308 ft | 443 kts | 192° |
| 2026-05-06 12:04 | -28.49914 | 117.06298 | 34311 ft | 443 kts | 191° |
| 2026-05-06 12:04 | -28.55945 | 117.05060 | 34314 ft | 443 kts | 191° |
| 2026-05-06 12:05 | -28.62010 | 117.03813 | 34317 ft | 442 kts | 191° |
| 2026-05-06 12:05 | -28.68072 | 117.02556 | 34320 ft | 442 kts | 191° |
| 2026-05-06 12:06 | -28.74135 | 117.01306 | 34314 ft | 443 kts | 191° |
| 2026-05-06 12:06 | -28.77144 | 117.00687 | 34295 ft | 432 kts | 191° |
| 2026-05-06 12:06 | -28.80050 | 117.00089 | 34297 ft | 417 kts | 191° |
| 2026-05-06 12:07 | -28.82863 | 116.99509 | 34301 ft | 405 kts | 192° |
| 2026-05-06 12:07 | -28.85618 | 116.98936 | 34326 ft | 400 kts | 192° |
| 2026-05-06 12:07 | -28.91086 | 116.97801 | 34339 ft | 398 kts | 191° |
| 2026-05-06 12:08 | -28.96537 | 116.96672 | 34339 ft | 398 kts | 191° |
| 2026-05-06 12:08 | -29.01960 | 116.95544 | 34340 ft | 398 kts | 192° |
| 2026-05-06 12:09 | -29.07413 | 116.94410 | 34346 ft | 398 kts | 192° |
| 2026-05-06 12:09 | -29.12876 | 116.93273 | 34354 ft | 399 kts | 192° |
| 2026-05-06 12:10 | -29.18347 | 116.92126 | 34355 ft | 399 kts | 192° |
| 2026-05-06 12:10 | -29.23874 | 116.90972 | 34349 ft | 416 kts | 191° |
| 2026-05-06 12:11 | -29.29696 | 116.89763 | 34351 ft | 434 kts | 191° |
| 2026-05-06 12:11 | -29.35702 | 116.88506 | 34348 ft | 440 kts | 191° |
| 2026-05-06 12:12 | -29.41746 | 116.87242 | 34348 ft | 442 kts | 191° |
| 2026-05-06 12:12 | -29.47794 | 116.85978 | 34349 ft | 442 kts | 191° |
| 2026-05-06 12:13 | -29.53840 | 116.84722 | 34357 ft | 442 kts | 191° |
| 2026-05-06 12:13 | -29.59892 | 116.83447 | 34365 ft | 442 kts | 191° |
| 2026-05-06 12:14 | -29.65902 | 116.82182 | 34363 ft | 442 kts | 191° |
| 2026-05-06 12:14 | -29.71951 | 116.80902 | 34364 ft | 442 kts | 191° |
| 2026-05-06 12:15 | -29.78004 | 116.79623 | 34367 ft | 442 kts | 191° |
| 2026-05-06 12:15 | -29.84074 | 116.78349 | 34373 ft | 443 kts | 191° |
| 2026-05-06 12:16 | -29.90133 | 116.77069 | 34379 ft | 442 kts | 191° |
| 2026-05-06 12:16 | -29.96191 | 116.75780 | 34379 ft | 442 kts | 191° |
| 2026-05-06 12:17 | -30.01216 | 116.74712 | 34377 ft | 442 kts | 191° |
| 2026-05-06 12:18 | -30.14178 | 116.71970 | 34385 ft | 442 kts | 191° |
| 2026-05-06 12:18 | -30.20232 | 116.70688 | 34389 ft | 442 kts | 191° |
| 2026-05-06 12:19 | -30.26250 | 116.69402 | 34392 ft | 442 kts | 191° |
| 2026-05-06 12:19 | -30.32299 | 116.68108 | 34390 ft | 442 kts | 191° |
| 2026-05-06 12:20 | -30.34342 | 116.67670 | 34388 ft | 441 kts | 191° |
| 2026-05-06 12:20 | -30.40482 | 116.66354 | 33101 ft | 440 kts | 191° |
| 2026-05-06 12:20 | -30.44528 | 116.65492 | 32156 ft | 441 kts | 191° |
| 2026-05-06 12:21 | -30.47537 | 116.64855 | 31609 ft | 437 kts | 191° |
| 2026-05-06 12:21 | -30.50481 | 116.64227 | 31081 ft | 434 kts | 191° |
| 2026-05-06 12:21 | -30.53437 | 116.63594 | 30528 ft | 430 kts | 191° |
| 2026-05-06 12:21 | -30.56337 | 116.62809 | 29984 ft | 426 kts | 198° |
| 2026-05-06 12:22 | -30.57291 | 116.62443 | 29795 ft | 425 kts | 198° |
| 2026-05-06 12:22 | -30.61925 | 116.60644 | 28887 ft | 420 kts | 198° |